sensor_id;sensor_type;location;lat;lon;timestamp;P1;durP1;ratioP1;P2;durP2;ratioP2
4835;SDS011;66719;51.226;6.902;2023-07-20T00:01:50;9.80;;;2.80;;
4835;SDS011;66719;51.226;6.902;2023-07-20T00:04:17;13.27;;;2.77;;
4835;SDS011;66719;51.226;6.902;2023-07-20T00:06:43;14.40;;;3.20;;
4835;SDS011;66719;51.226;6.902;2023-07-20T00:09:10;11.27;;;2.77;;
4835;SDS011;66719;51.226;6.902;2023-07-20T00:11:37;18.43;;;3.10;;
4835;SDS011;66719;51.226;6.902;2023-07-20T00:14:05;12.87;;;3.20;;
4835;SDS011;66719;51.226;6.902;2023-07-20T00:16:32;9.97;;;2.90;;
4835;SDS011;66719;51.226;6.902;2023-07-20T00:18:58;9.23;;;2.40;;
4835;SDS011;66719;51.226;6.902;2023-07-20T00:21:25;10.10;;;3.07;;
4835;SDS011;66719;51.226;6.902;2023-07-20T00:23:52;11.83;;;2.63;;
4835;SDS011;66719;51.226;6.902;2023-07-20T00:26:19;11.20;;;2.57;;
4835;SDS011;66719;51.226;6.902;2023-07-20T00:28:46;13.03;;;2.73;;
4835;SDS011;66719;51.226;6.902;2023-07-20T00:31:13;10.30;;;2.40;;
4835;SDS011;66719;51.226;6.902;2023-07-20T00:33:39;9.27;;;2.40;;
4835;SDS011;66719;51.226;6.902;2023-07-20T00:36:06;11.37;;;2.83;;
4835;SDS011;66719;51.226;6.902;2023-07-20T00:38:32;9.37;;;2.67;;
4835;SDS011;66719;51.226;6.902;2023-07-20T00:40:59;9.80;;;3.13;;
4835;SDS011;66719;51.226;6.902;2023-07-20T00:43:26;8.00;;;2.57;;
4835;SDS011;66719;51.226;6.902;2023-07-20T00:45:52;13.10;;;3.00;;
4835;SDS011;66719;51.226;6.902;2023-07-20T00:48:19;9.10;;;2.77;;
4835;SDS011;66719;51.226;6.902;2023-07-20T00:50:46;10.00;;;2.90;;
4835;SDS011;66719;51.226;6.902;2023-07-20T00:53:13;9.90;;;3.20;;
4835;SDS011;66719;51.226;6.902;2023-07-20T00:55:40;11.13;;;3.07;;
4835;SDS011;66719;51.226;6.902;2023-07-20T00:58:06;11.17;;;2.80;;
4835;SDS011;66719;51.226;6.902;2023-07-20T01:00:34;9.60;;;2.83;;
4835;SDS011;66719;51.226;6.902;2023-07-20T01:03:01;9.00;;;2.60;;
4835;SDS011;66719;51.226;6.902;2023-07-20T01:05:36;10.90;;;2.80;;
4835;SDS011;66719;51.226;6.902;2023-07-20T01:08:15;12.50;;;3.20;;
4835;SDS011;66719;51.226;6.902;2023-07-20T01:10:51;12.23;;;3.30;;
4835;SDS011;66719;51.226;6.902;2023-07-20T01:13:22;10.77;;;2.77;;
4835;SDS011;66719;51.226;6.902;2023-07-20T01:15:49;11.27;;;3.23;;
4835;SDS011;66719;51.226;6.902;2023-07-20T01:18:17;13.97;;;3.50;;
4835;SDS011;66719;51.226;6.902;2023-07-20T01:20:44;14.13;;;4.10;;
4835;SDS011;66719;51.226;6.902;2023-07-20T01:23:21;15.10;;;4.33;;
4835;SDS011;66719;51.226;6.902;2023-07-20T01:25:58;11.73;;;3.60;;
4835;SDS011;66719;51.226;6.902;2023-07-20T01:31:32;13.80;;;4.10;;
4835;SDS011;66719;51.226;6.902;2023-07-20T01:34:01;10.70;;;3.60;;
4835;SDS011;66719;51.226;6.902;2023-07-20T01:36:34;11.73;;;3.47;;
4835;SDS011;66719;51.226;6.902;2023-07-20T01:39:02;11.60;;;3.90;;
4835;SDS011;66719;51.226;6.902;2023-07-20T01:41:31;17.77;;;3.70;;
4835;SDS011;66719;51.226;6.902;2023-07-20T01:43:58;12.37;;;3.60;;
4835;SDS011;66719;51.226;6.902;2023-07-20T01:46:25;11.47;;;3.50;;
4835;SDS011;66719;51.226;6.902;2023-07-20T01:48:52;11.17;;;3.70;;
4835;SDS011;66719;51.226;6.902;2023-07-20T01:51:20;11.60;;;3.53;;
4835;SDS011;66719;51.226;6.902;2023-07-20T01:53:47;13.57;;;3.67;;
4835;SDS011;66719;51.226;6.902;2023-07-20T01:56:14;11.27;;;3.87;;
4835;SDS011;66719;51.226;6.902;2023-07-20T01:58:40;12.10;;;3.83;;
4835;SDS011;66719;51.226;6.902;2023-07-20T02:01:07;15.93;;;4.37;;
4835;SDS011;66719;51.226;6.902;2023-07-20T02:03:33;13.70;;;4.40;;
4835;SDS011;66719;51.226;6.902;2023-07-20T02:06:00;12.40;;;4.10;;
4835;SDS011;66719;51.226;6.902;2023-07-20T02:08:27;12.57;;;4.40;;
4835;SDS011;66719;51.226;6.902;2023-07-20T02:10:53;10.97;;;3.50;;
4835;SDS011;66719;51.226;6.902;2023-07-20T02:13:20;14.17;;;4.63;;
4835;SDS011;66719;51.226;6.902;2023-07-20T02:15:46;11.53;;;4.03;;
4835;SDS011;66719;51.226;6.902;2023-07-20T02:18:15;12.50;;;4.30;;
4835;SDS011;66719;51.226;6.902;2023-07-20T02:20:42;15.03;;;4.53;;
4835;SDS011;66719;51.226;6.902;2023-07-20T02:23:09;13.97;;;4.10;;
4835;SDS011;66719;51.226;6.902;2023-07-20T02:25:37;12.10;;;3.77;;
4835;SDS011;66719;51.226;6.902;2023-07-20T02:28:04;12.77;;;3.73;;
4835;SDS011;66719;51.226;6.902;2023-07-20T02:30:30;13.83;;;4.77;;
4835;SDS011;66719;51.226;6.902;2023-07-20T02:32:57;10.30;;;3.50;;
4835;SDS011;66719;51.226;6.902;2023-07-20T02:35:25;14.00;;;3.83;;
4835;SDS011;66719;51.226;6.902;2023-07-20T02:37:52;13.57;;;4.00;;
4835;SDS011;66719;51.226;6.902;2023-07-20T02:40:19;11.50;;;3.83;;
4835;SDS011;66719;51.226;6.902;2023-07-20T02:42:45;14.83;;;4.03;;
4835;SDS011;66719;51.226;6.902;2023-07-20T02:45:12;10.97;;;4.03;;
4835;SDS011;66719;51.226;6.902;2023-07-20T02:47:38;13.60;;;4.20;;
4835;SDS011;66719;51.226;6.902;2023-07-20T02:50:06;13.30;;;4.00;;
4835;SDS011;66719;51.226;6.902;2023-07-20T02:52:34;12.73;;;4.03;;
4835;SDS011;66719;51.226;6.902;2023-07-20T02:55:00;10.30;;;3.47;;
4835;SDS011;66719;51.226;6.902;2023-07-20T02:57:27;14.27;;;3.70;;
4835;SDS011;66719;51.226;6.902;2023-07-20T02:59:53;13.30;;;4.03;;
4835;SDS011;66719;51.226;6.902;2023-07-20T03:02:21;12.90;;;3.90;;
4835;SDS011;66719;51.226;6.902;2023-07-20T03:04:47;13.67;;;4.00;;
4835;SDS011;66719;51.226;6.902;2023-07-20T03:07:14;13.87;;;3.80;;
4835;SDS011;66719;51.226;6.902;2023-07-20T03:09:40;12.53;;;4.10;;
4835;SDS011;66719;51.226;6.902;2023-07-20T03:12:07;17.03;;;4.00;;
4835;SDS011;66719;51.226;6.902;2023-07-20T03:14:34;13.30;;;4.13;;
4835;SDS011;66719;51.226;6.902;2023-07-20T03:17:01;18.30;;;3.83;;
4835;SDS011;66719;51.226;6.902;2023-07-20T03:19:28;12.43;;;3.50;;
4835;SDS011;66719;51.226;6.902;2023-07-20T03:21:54;11.33;;;3.63;;
4835;SDS011;66719;51.226;6.902;2023-07-20T03:24:21;15.00;;;4.10;;
4835;SDS011;66719;51.226;6.902;2023-07-20T03:26:48;12.03;;;3.90;;
4835;SDS011;66719;51.226;6.902;2023-07-20T03:29:14;12.80;;;4.00;;
4835;SDS011;66719;51.226;6.902;2023-07-20T03:31:42;12.10;;;4.03;;
4835;SDS011;66719;51.226;6.902;2023-07-20T03:34:08;12.27;;;3.80;;
4835;SDS011;66719;51.226;6.902;2023-07-20T03:36:35;12.00;;;4.07;;
4835;SDS011;66719;51.226;6.902;2023-07-20T03:39:01;11.80;;;4.40;;
4835;SDS011;66719;51.226;6.902;2023-07-20T03:41:29;12.97;;;4.50;;
4835;SDS011;66719;51.226;6.902;2023-07-20T03:43:55;13.97;;;4.87;;
4835;SDS011;66719;51.226;6.902;2023-07-20T03:46:22;21.73;;;5.37;;
4835;SDS011;66719;51.226;6.902;2023-07-20T03:48:49;11.23;;;3.90;;
4835;SDS011;66719;51.226;6.902;2023-07-20T03:51:16;16.17;;;4.40;;
4835;SDS011;66719;51.226;6.902;2023-07-20T03:53:42;14.03;;;3.97;;
4835;SDS011;66719;51.226;6.902;2023-07-20T03:56:09;10.60;;;4.23;;
4835;SDS011;66719;51.226;6.902;2023-07-20T03:58:35;13.53;;;4.53;;
4835;SDS011;66719;51.226;6.902;2023-07-20T04:01:02;11.00;;;4.00;;
4835;SDS011;66719;51.226;6.902;2023-07-20T04:03:28;11.83;;;4.27;;
4835;SDS011;66719;51.226;6.902;2023-07-20T04:05:55;16.07;;;4.80;;
4835;SDS011;66719;51.226;6.902;2023-07-20T04:08:25;13.90;;;5.20;;
4835;SDS011;66719;51.226;6.902;2023-07-20T04:10:51;11.50;;;4.30;;
4835;SDS011;66719;51.226;6.902;2023-07-20T04:13:18;14.17;;;5.07;;
4835;SDS011;66719;51.226;6.902;2023-07-20T04:15:45;19.50;;;6.37;;
4835;SDS011;66719;51.226;6.902;2023-07-20T04:18:11;18.10;;;5.77;;
4835;SDS011;66719;51.226;6.902;2023-07-20T04:20:38;22.07;;;6.90;;
4835;SDS011;66719;51.226;6.902;2023-07-20T04:23:05;20.07;;;7.40;;
4835;SDS011;66719;51.226;6.902;2023-07-20T04:25:31;15.47;;;7.30;;
4835;SDS011;66719;51.226;6.902;2023-07-20T04:28:06;16.93;;;6.70;;
4835;SDS011;66719;51.226;6.902;2023-07-20T04:30:37;16.73;;;7.43;;
4835;SDS011;66719;51.226;6.902;2023-07-20T04:33:04;17.80;;;6.90;;
4835;SDS011;66719;51.226;6.902;2023-07-20T04:38:18;18.80;;;7.60;;
4835;SDS011;66719;51.226;6.902;2023-07-20T04:40:45;19.70;;;7.77;;
4835;SDS011;66719;51.226;6.902;2023-07-20T04:43:13;20.37;;;7.13;;
4835;SDS011;66719;51.226;6.902;2023-07-20T04:45:40;15.97;;;8.33;;
4835;SDS011;66719;51.226;6.902;2023-07-20T04:48:10;17.80;;;8.63;;
4835;SDS011;66719;51.226;6.902;2023-07-20T04:50:42;19.53;;;7.83;;
4835;SDS011;66719;51.226;6.902;2023-07-20T04:53:11;22.77;;;10.10;;
4835;SDS011;66719;51.226;6.902;2023-07-20T04:55:38;21.00;;;8.67;;
4835;SDS011;66719;51.226;6.902;2023-07-20T04:58:06;15.97;;;8.27;;
4835;SDS011;66719;51.226;6.902;2023-07-20T05:00:33;17.70;;;8.53;;
4835;SDS011;66719;51.226;6.902;2023-07-20T05:03:00;22.03;;;8.77;;
4835;SDS011;66719;51.226;6.902;2023-07-20T05:05:27;18.33;;;9.00;;
4835;SDS011;66719;51.226;6.902;2023-07-20T05:07:54;19.00;;;8.93;;
4835;SDS011;66719;51.226;6.902;2023-07-20T05:10:21;19.43;;;9.70;;
4835;SDS011;66719;51.226;6.902;2023-07-20T05:12:47;20.37;;;9.63;;
4835;SDS011;66719;51.226;6.902;2023-07-20T05:15:14;24.27;;;9.87;;
4835;SDS011;66719;51.226;6.902;2023-07-20T05:17:40;20.53;;;9.80;;
4835;SDS011;66719;51.226;6.902;2023-07-20T05:20:07;18.87;;;9.73;;
4835;SDS011;66719;51.226;6.902;2023-07-20T05:22:38;19.60;;;10.37;;
4835;SDS011;66719;51.226;6.902;2023-07-20T05:25:08;21.03;;;10.40;;
4835;SDS011;66719;51.226;6.902;2023-07-20T05:27:38;23.40;;;11.07;;
4835;SDS011;66719;51.226;6.902;2023-07-20T05:30:06;18.93;;;9.80;;
4835;SDS011;66719;51.226;6.902;2023-07-20T05:32:33;30.97;;;11.13;;
4835;SDS011;66719;51.226;6.902;2023-07-20T05:35:00;24.30;;;11.60;;
4835;SDS011;66719;51.226;6.902;2023-07-20T05:37:26;17.80;;;10.30;;
4835;SDS011;66719;51.226;6.902;2023-07-20T05:39:53;21.73;;;11.37;;
4835;SDS011;66719;51.226;6.902;2023-07-20T05:42:20;23.10;;;12.10;;
4835;SDS011;66719;51.226;6.902;2023-07-20T05:44:46;20.20;;;11.97;;
4835;SDS011;66719;51.226;6.902;2023-07-20T05:47:14;19.50;;;11.23;;
4835;SDS011;66719;51.226;6.902;2023-07-20T05:49:40;27.83;;;11.67;;
4835;SDS011;66719;51.226;6.902;2023-07-20T05:52:07;31.70;;;12.00;;
4835;SDS011;66719;51.226;6.902;2023-07-20T05:54:34;19.57;;;11.23;;
4835;SDS011;66719;51.226;6.902;2023-07-20T05:57:00;24.40;;;12.70;;
4835;SDS011;66719;51.226;6.902;2023-07-20T05:59:27;21.83;;;12.90;;
4835;SDS011;66719;51.226;6.902;2023-07-20T06:01:57;23.03;;;13.57;;
4835;SDS011;66719;51.226;6.902;2023-07-20T06:04:24;22.13;;;11.60;;
4835;SDS011;66719;51.226;6.902;2023-07-20T06:06:50;19.00;;;11.40;;
4835;SDS011;66719;51.226;6.902;2023-07-20T06:09:17;24.13;;;14.77;;
4835;SDS011;66719;51.226;6.902;2023-07-20T06:11:44;30.37;;;16.53;;
4835;SDS011;66719;51.226;6.902;2023-07-20T06:14:10;25.17;;;15.27;;
4835;SDS011;66719;51.226;6.902;2023-07-20T06:16:37;24.30;;;15.13;;
4835;SDS011;66719;51.226;6.902;2023-07-20T06:19:03;25.60;;;15.53;;
4835;SDS011;66719;51.226;6.902;2023-07-20T06:21:30;27.13;;;15.40;;
4835;SDS011;66719;51.226;6.902;2023-07-20T06:23:56;27.10;;;15.07;;
4835;SDS011;66719;51.226;6.902;2023-07-20T06:26:23;23.20;;;15.00;;
4835;SDS011;66719;51.226;6.902;2023-07-20T06:28:50;26.63;;;13.80;;
4835;SDS011;66719;51.226;6.902;2023-07-20T06:31:17;23.10;;;13.07;;
4835;SDS011;66719;51.226;6.902;2023-07-20T06:33:43;21.03;;;11.70;;
4835;SDS011;66719;51.226;6.902;2023-07-20T06:36:10;21.97;;;12.33;;
4835;SDS011;66719;51.226;6.902;2023-07-20T06:38:37;22.20;;;12.93;;
4835;SDS011;66719;51.226;6.902;2023-07-20T06:41:04;20.50;;;13.87;;
4835;SDS011;66719;51.226;6.902;2023-07-20T06:43:33;21.93;;;14.27;;
4835;SDS011;66719;51.226;6.902;2023-07-20T06:46:02;25.17;;;14.90;;
4835;SDS011;66719;51.226;6.902;2023-07-20T06:48:29;28.93;;;15.83;;
4835;SDS011;66719;51.226;6.902;2023-07-20T06:50:56;22.97;;;15.57;;
4835;SDS011;66719;51.226;6.902;2023-07-20T06:53:22;22.63;;;14.80;;
4835;SDS011;66719;51.226;6.902;2023-07-20T06:55:49;23.33;;;14.73;;
4835;SDS011;66719;51.226;6.902;2023-07-20T06:58:16;23.47;;;15.40;;
4835;SDS011;66719;51.226;6.902;2023-07-20T07:00:44;23.03;;;14.00;;
4835;SDS011;66719;51.226;6.902;2023-07-20T07:03:10;21.73;;;13.27;;
4835;SDS011;66719;51.226;6.902;2023-07-20T07:05:38;21.20;;;13.67;;
4835;SDS011;66719;51.226;6.902;2023-07-20T07:08:05;19.50;;;12.37;;
4835;SDS011;66719;51.226;6.902;2023-07-20T07:10:32;21.10;;;14.17;;
4835;SDS011;66719;51.226;6.902;2023-07-20T07:13:01;20.30;;;13.90;;
4835;SDS011;66719;51.226;6.902;2023-07-20T07:15:29;24.93;;;16.23;;
4835;SDS011;66719;51.226;6.902;2023-07-20T07:17:56;28.80;;;15.17;;
4835;SDS011;66719;51.226;6.902;2023-07-20T07:20:23;20.13;;;14.07;;
4835;SDS011;66719;51.226;6.902;2023-07-20T07:22:50;21.03;;;14.83;;
4835;SDS011;66719;51.226;6.902;2023-07-20T07:25:17;21.63;;;13.87;;
4835;SDS011;66719;51.226;6.902;2023-07-20T07:27:49;18.67;;;11.07;;
4835;SDS011;66719;51.226;6.902;2023-07-20T07:30:15;20.37;;;11.03;;
4835;SDS011;66719;51.226;6.902;2023-07-20T07:32:42;18.27;;;11.23;;
4835;SDS011;66719;51.226;6.902;2023-07-20T07:35:09;19.13;;;12.83;;
4835;SDS011;66719;51.226;6.902;2023-07-20T07:37:36;19.67;;;11.77;;
4835;SDS011;66719;51.226;6.902;2023-07-20T07:40:17;19.40;;;11.30;;
4835;SDS011;66719;51.226;6.902;2023-07-20T07:42:44;18.80;;;11.20;;
4835;SDS011;66719;51.226;6.902;2023-07-20T07:45:11;16.47;;;9.60;;
4835;SDS011;66719;51.226;6.902;2023-07-20T07:47:37;20.30;;;9.67;;
4835;SDS011;66719;51.226;6.902;2023-07-20T07:50:04;19.40;;;8.60;;
4835;SDS011;66719;51.226;6.902;2023-07-20T07:52:31;16.77;;;9.90;;
4835;SDS011;66719;51.226;6.902;2023-07-20T07:54:58;17.20;;;9.50;;
4835;SDS011;66719;51.226;6.902;2023-07-20T07:57:26;16.20;;;9.87;;
4835;SDS011;66719;51.226;6.902;2023-07-20T07:59:53;14.60;;;7.97;;
4835;SDS011;66719;51.226;6.902;2023-07-20T08:02:19;14.20;;;8.30;;
4835;SDS011;66719;51.226;6.902;2023-07-20T08:04:46;15.40;;;7.17;;
4835;SDS011;66719;51.226;6.902;2023-07-20T08:07:13;14.17;;;6.70;;
4835;SDS011;66719;51.226;6.902;2023-07-20T08:09:39;15.40;;;6.83;;
4835;SDS011;66719;51.226;6.902;2023-07-20T08:12:06;14.23;;;6.57;;
4835;SDS011;66719;51.226;6.902;2023-07-20T08:14:33;14.03;;;6.30;;
4835;SDS011;66719;51.226;6.902;2023-07-20T08:17:00;13.17;;;5.50;;
4835;SDS011;66719;51.226;6.902;2023-07-20T08:19:26;10.30;;;3.73;;
4835;SDS011;66719;51.226;6.902;2023-07-20T08:21:53;9.53;;;2.90;;
4835;SDS011;66719;51.226;6.902;2023-07-20T08:24:20;10.47;;;2.47;;
4835;SDS011;66719;51.226;6.902;2023-07-20T08:26:46;8.17;;;2.20;;
4835;SDS011;66719;51.226;6.902;2023-07-20T08:29:13;7.70;;;1.70;;
4835;SDS011;66719;51.226;6.902;2023-07-20T08:31:40;10.10;;;1.87;;
4835;SDS011;66719;51.226;6.902;2023-07-20T08:34:06;8.93;;;1.70;;
4835;SDS011;66719;51.226;6.902;2023-07-20T08:36:49;9.70;;;3.53;;
4835;SDS011;66719;51.226;6.902;2023-07-20T08:39:16;9.37;;;3.00;;
4835;SDS011;66719;51.226;6.902;2023-07-20T08:41:43;11.57;;;5.60;;
4835;SDS011;66719;51.226;6.902;2023-07-20T08:44:10;11.13;;;5.53;;
4835;SDS011;66719;51.226;6.902;2023-07-20T08:46:37;18.40;;;5.77;;
4835;SDS011;66719;51.226;6.902;2023-07-20T08:49:05;14.27;;;5.33;;
4835;SDS011;66719;51.226;6.902;2023-07-20T08:51:33;9.33;;;4.80;;
4835;SDS011;66719;51.226;6.902;2023-07-20T08:54:02;12.63;;;6.20;;
4835;SDS011;66719;51.226;6.902;2023-07-20T08:56:29;11.77;;;6.17;;
4835;SDS011;66719;51.226;6.902;2023-07-20T08:58:57;11.63;;;5.60;;
4835;SDS011;66719;51.226;6.902;2023-07-20T09:01:25;11.47;;;6.10;;
4835;SDS011;66719;51.226;6.902;2023-07-20T09:03:54;11.13;;;5.50;;
4835;SDS011;66719;51.226;6.902;2023-07-20T09:06:21;14.47;;;5.70;;
4835;SDS011;66719;51.226;6.902;2023-07-20T09:08:48;13.30;;;4.40;;
4835;SDS011;66719;51.226;6.902;2023-07-20T09:11:14;10.93;;;4.90;;
4835;SDS011;66719;51.226;6.902;2023-07-20T09:13:41;11.53;;;4.73;;
4835;SDS011;66719;51.226;6.902;2023-07-20T09:16:08;12.60;;;4.57;;
4835;SDS011;66719;51.226;6.902;2023-07-20T09:18:35;9.90;;;4.30;;
4835;SDS011;66719;51.226;6.902;2023-07-20T09:21:03;17.33;;;5.20;;
4835;SDS011;66719;51.226;6.902;2023-07-20T09:23:32;12.60;;;4.93;;
4835;SDS011;66719;51.226;6.902;2023-07-20T09:26:00;12.80;;;4.97;;
4835;SDS011;66719;51.226;6.902;2023-07-20T09:28:42;12.50;;;4.70;;
4835;SDS011;66719;51.226;6.902;2023-07-20T09:31:17;9.20;;;3.93;;
4835;SDS011;66719;51.226;6.902;2023-07-20T09:33:45;11.23;;;3.83;;
4835;SDS011;66719;51.226;6.902;2023-07-20T09:36:18;9.67;;;3.80;;
4835;SDS011;66719;51.226;6.902;2023-07-20T09:39:05;10.43;;;3.63;;
4835;SDS011;66719;51.226;6.902;2023-07-20T09:41:41;10.43;;;3.27;;
4835;SDS011;66719;51.226;6.902;2023-07-20T09:44:15;10.37;;;3.30;;
4835;SDS011;66719;51.226;6.902;2023-07-20T09:46:45;10.80;;;3.37;;
4835;SDS011;66719;51.226;6.902;2023-07-20T09:49:17;9.07;;;3.20;;
4835;SDS011;66719;51.226;6.902;2023-07-20T09:51:47;9.23;;;3.20;;
4835;SDS011;66719;51.226;6.902;2023-07-20T09:54:14;10.70;;;3.20;;
4835;SDS011;66719;51.226;6.902;2023-07-20T09:56:42;11.30;;;3.13;;
4835;SDS011;66719;51.226;6.902;2023-07-20T09:59:08;10.30;;;3.00;;
4835;SDS011;66719;51.226;6.902;2023-07-20T10:01:35;10.07;;;3.00;;
4835;SDS011;66719;51.226;6.902;2023-07-20T10:04:07;9.60;;;3.40;;
4835;SDS011;66719;51.226;6.902;2023-07-20T10:06:35;14.23;;;3.27;;
4835;SDS011;66719;51.226;6.902;2023-07-20T10:09:08;9.07;;;3.00;;
4835;SDS011;66719;51.226;6.902;2023-07-20T10:11:36;8.17;;;2.40;;
4835;SDS011;66719;51.226;6.902;2023-07-20T10:14:08;11.37;;;3.00;;
4835;SDS011;66719;51.226;6.902;2023-07-20T10:16:43;8.23;;;2.03;;
4835;SDS011;66719;51.226;6.902;2023-07-20T10:19:25;8.03;;;2.10;;
4835;SDS011;66719;51.226;6.902;2023-07-20T10:22:15;10.77;;;1.77;;
4835;SDS011;66719;51.226;6.902;2023-07-20T10:24:46;7.80;;;1.90;;
4835;SDS011;66719;51.226;6.902;2023-07-20T10:27:16;9.23;;;1.97;;
4835;SDS011;66719;51.226;6.902;2023-07-20T10:29:42;10.40;;;2.27;;
4835;SDS011;66719;51.226;6.902;2023-07-20T10:32:09;7.90;;;2.00;;
4835;SDS011;66719;51.226;6.902;2023-07-20T10:34:37;7.27;;;2.03;;
4835;SDS011;66719;51.226;6.902;2023-07-20T10:37:03;8.10;;;2.10;;
4835;SDS011;66719;51.226;6.902;2023-07-20T10:39:31;9.90;;;1.90;;
4835;SDS011;66719;51.226;6.902;2023-07-20T10:44:29;7.83;;;1.60;;
4835;SDS011;66719;51.226;6.902;2023-07-20T10:47:03;7.77;;;1.77;;
4835;SDS011;66719;51.226;6.902;2023-07-20T10:49:35;8.23;;;1.60;;
4835;SDS011;66719;51.226;6.902;2023-07-20T10:52:05;7.83;;;1.40;;
4835;SDS011;66719;51.226;6.902;2023-07-20T10:54:33;8.87;;;1.80;;
4835;SDS011;66719;51.226;6.902;2023-07-20T10:57:21;7.10;;;1.70;;
4835;SDS011;66719;51.226;6.902;2023-07-20T10:59:51;8.13;;;1.90;;
4835;SDS011;66719;51.226;6.902;2023-07-20T11:02:18;10.27;;;1.67;;
4835;SDS011;66719;51.226;6.902;2023-07-20T11:04:46;7.00;;;1.40;;
4835;SDS011;66719;51.226;6.902;2023-07-20T11:07:18;8.20;;;1.70;;
4835;SDS011;66719;51.226;6.902;2023-07-20T11:10:13;7.03;;;1.70;;
4835;SDS011;66719;51.226;6.902;2023-07-20T11:15:47;7.50;;;1.80;;
4835;SDS011;66719;51.226;6.902;2023-07-20T11:18:16;8.10;;;1.80;;
4835;SDS011;66719;51.226;6.902;2023-07-20T11:20:43;7.83;;;1.70;;
4835;SDS011;66719;51.226;6.902;2023-07-20T11:23:09;7.90;;;1.70;;
4835;SDS011;66719;51.226;6.902;2023-07-20T11:25:39;7.60;;;1.80;;
4835;SDS011;66719;51.226;6.902;2023-07-20T11:28:07;8.60;;;1.70;;
4835;SDS011;66719;51.226;6.902;2023-07-20T11:30:37;7.40;;;1.80;;
4835;SDS011;66719;51.226;6.902;2023-07-20T11:33:05;7.57;;;1.53;;
4835;SDS011;66719;51.226;6.902;2023-07-20T11:35:35;10.17;;;1.60;;
4835;SDS011;66719;51.226;6.902;2023-07-20T11:38:12;7.50;;;1.80;;
4835;SDS011;66719;51.226;6.902;2023-07-20T11:40:42;7.60;;;1.70;;
4835;SDS011;66719;51.226;6.902;2023-07-20T11:43:10;7.87;;;1.80;;
4835;SDS011;66719;51.226;6.902;2023-07-20T11:45:41;8.13;;;1.70;;
4835;SDS011;66719;51.226;6.902;2023-07-20T11:48:14;8.40;;;1.60;;
4835;SDS011;66719;51.226;6.902;2023-07-20T11:50:42;8.90;;;1.80;;
4835;SDS011;66719;51.226;6.902;2023-07-20T11:53:08;12.70;;;2.00;;
4835;SDS011;66719;51.226;6.902;2023-07-20T11:55:36;10.17;;;2.70;;
4835;SDS011;66719;51.226;6.902;2023-07-20T11:58:03;6.90;;;1.40;;
4835;SDS011;66719;51.226;6.902;2023-07-20T12:00:34;8.23;;;1.40;;
4835;SDS011;66719;51.226;6.902;2023-07-20T12:03:04;8.70;;;1.47;;
4835;SDS011;66719;51.226;6.902;2023-07-20T12:05:33;7.20;;;1.43;;
4835;SDS011;66719;51.226;6.902;2023-07-20T12:08:20;7.47;;;1.40;;
4835;SDS011;66719;51.226;6.902;2023-07-20T12:10:48;7.40;;;1.27;;
4835;SDS011;66719;51.226;6.902;2023-07-20T12:13:15;7.13;;;1.43;;
4835;SDS011;66719;51.226;6.902;2023-07-20T12:15:41;8.83;;;1.33;;
4835;SDS011;66719;51.226;6.902;2023-07-20T12:18:09;6.83;;;1.30;;
4835;SDS011;66719;51.226;6.902;2023-07-20T12:20:36;7.00;;;1.40;;
4835;SDS011;66719;51.226;6.902;2023-07-20T12:23:07;6.70;;;1.30;;
4835;SDS011;66719;51.226;6.902;2023-07-20T12:25:42;8.07;;;1.60;;
4835;SDS011;66719;51.226;6.902;2023-07-20T12:28:11;12.43;;;1.60;;
4835;SDS011;66719;51.226;6.902;2023-07-20T12:30:44;8.53;;;1.57;;
4835;SDS011;66719;51.226;6.902;2023-07-20T12:33:12;7.23;;;1.57;;
4835;SDS011;66719;51.226;6.902;2023-07-20T12:35:45;7.07;;;1.40;;
4835;SDS011;66719;51.226;6.902;2023-07-20T12:38:12;9.77;;;1.57;;
4835;SDS011;66719;51.226;6.902;2023-07-20T12:40:38;9.93;;;1.50;;
4835;SDS011;66719;51.226;6.902;2023-07-20T12:43:05;8.70;;;1.60;;
4835;SDS011;66719;51.226;6.902;2023-07-20T12:45:32;7.60;;;1.40;;
4835;SDS011;66719;51.226;6.902;2023-07-20T12:47:59;9.80;;;1.60;;
4835;SDS011;66719;51.226;6.902;2023-07-20T12:50:26;7.50;;;1.40;;
4835;SDS011;66719;51.226;6.902;2023-07-20T12:52:53;7.50;;;1.30;;
4835;SDS011;66719;51.226;6.902;2023-07-20T12:55:19;9.07;;;1.77;;
4835;SDS011;66719;51.226;6.902;2023-07-20T12:57:46;10.50;;;1.60;;
4835;SDS011;66719;51.226;6.902;2023-07-20T13:00:13;7.33;;;1.50;;
4835;SDS011;66719;51.226;6.902;2023-07-20T13:02:40;8.77;;;1.37;;
4835;SDS011;66719;51.226;6.902;2023-07-20T13:05:08;8.87;;;1.47;;
4835;SDS011;66719;51.226;6.902;2023-07-20T13:07:35;7.23;;;1.30;;
4835;SDS011;66719;51.226;6.902;2023-07-20T13:10:06;9.37;;;1.23;;
4835;SDS011;66719;51.226;6.902;2023-07-20T13:12:34;7.87;;;1.40;;
4835;SDS011;66719;51.226;6.902;2023-07-20T13:15:02;6.80;;;1.20;;
4835;SDS011;66719;51.226;6.902;2023-07-20T13:17:33;7.13;;;1.40;;
4835;SDS011;66719;51.226;6.902;2023-07-20T13:20:02;7.10;;;1.27;;
4835;SDS011;66719;51.226;6.902;2023-07-20T13:22:32;7.73;;;1.37;;
4835;SDS011;66719;51.226;6.902;2023-07-20T13:24:59;7.63;;;1.40;;
4835;SDS011;66719;51.226;6.902;2023-07-20T13:27:26;9.33;;;1.40;;
4835;SDS011;66719;51.226;6.902;2023-07-20T13:29:53;8.63;;;1.33;;
4835;SDS011;66719;51.226;6.902;2023-07-20T13:32:20;7.97;;;1.50;;
4835;SDS011;66719;51.226;6.902;2023-07-20T13:34:46;6.70;;;1.37;;
4835;SDS011;66719;51.226;6.902;2023-07-20T13:37:14;8.47;;;1.53;;
4835;SDS011;66719;51.226;6.902;2023-07-20T13:39:42;8.80;;;1.80;;
4835;SDS011;66719;51.226;6.902;2023-07-20T13:42:10;10.30;;;2.00;;
4835;SDS011;66719;51.226;6.902;2023-07-20T13:44:38;8.10;;;1.97;;
4835;SDS011;66719;51.226;6.902;2023-07-20T13:47:05;8.37;;;1.63;;
4835;SDS011;66719;51.226;6.902;2023-07-20T13:49:34;10.30;;;2.07;;
4835;SDS011;66719;51.226;6.902;2023-07-20T13:52:12;9.57;;;1.93;;
4835;SDS011;66719;51.226;6.902;2023-07-20T13:54:41;9.60;;;1.80;;
4835;SDS011;66719;51.226;6.902;2023-07-20T13:57:11;8.07;;;1.70;;
4835;SDS011;66719;51.226;6.902;2023-07-20T13:59:37;8.23;;;1.53;;
4835;SDS011;66719;51.226;6.902;2023-07-20T14:02:04;8.20;;;1.43;;
4835;SDS011;66719;51.226;6.902;2023-07-20T14:04:33;11.40;;;1.43;;
4835;SDS011;66719;51.226;6.902;2023-07-20T14:07:00;9.30;;;1.77;;
4835;SDS011;66719;51.226;6.902;2023-07-20T14:09:27;9.03;;;1.73;;
4835;SDS011;66719;51.226;6.902;2023-07-20T14:11:53;7.40;;;1.60;;
4835;SDS011;66719;51.226;6.902;2023-07-20T14:14:23;7.40;;;1.40;;
4835;SDS011;66719;51.226;6.902;2023-07-20T14:16:49;7.33;;;1.40;;
4835;SDS011;66719;51.226;6.902;2023-07-20T14:19:16;7.30;;;1.40;;
4835;SDS011;66719;51.226;6.902;2023-07-20T14:21:43;7.30;;;1.40;;
4835;SDS011;66719;51.226;6.902;2023-07-20T14:24:10;9.20;;;1.30;;
4835;SDS011;66719;51.226;6.902;2023-07-20T14:26:37;7.60;;;1.30;;
4835;SDS011;66719;51.226;6.902;2023-07-20T14:29:03;8.43;;;1.70;;
4835;SDS011;66719;51.226;6.902;2023-07-20T14:31:30;8.80;;;1.80;;
4835;SDS011;66719;51.226;6.902;2023-07-20T14:33:58;8.60;;;1.70;;
4835;SDS011;66719;51.226;6.902;2023-07-20T14:36:25;6.70;;;1.40;;
4835;SDS011;66719;51.226;6.902;2023-07-20T14:38:52;11.43;;;1.50;;
4835;SDS011;66719;51.226;6.902;2023-07-20T14:41:19;8.43;;;1.53;;
4835;SDS011;66719;51.226;6.902;2023-07-20T14:43:46;6.43;;;1.20;;
4835;SDS011;66719;51.226;6.902;2023-07-20T14:46:13;6.70;;;1.27;;
4835;SDS011;66719;51.226;6.902;2023-07-20T14:48:39;6.70;;;1.20;;
4835;SDS011;66719;51.226;6.902;2023-07-20T14:51:06;7.23;;;1.30;;
4835;SDS011;66719;51.226;6.902;2023-07-20T14:53:33;8.13;;;1.30;;
4835;SDS011;66719;51.226;6.902;2023-07-20T14:56:02;6.80;;;1.10;;
4835;SDS011;66719;51.226;6.902;2023-07-20T14:58:29;7.33;;;1.50;;
4835;SDS011;66719;51.226;6.902;2023-07-20T15:00:59;6.60;;;1.27;;
4835;SDS011;66719;51.226;6.902;2023-07-20T15:03:26;9.23;;;1.40;;
4835;SDS011;66719;51.226;6.902;2023-07-20T15:05:55;8.40;;;1.40;;
4835;SDS011;66719;51.226;6.902;2023-07-20T15:08:22;7.57;;;1.40;;